Time;durP1;ratioP1;P1;durP2;ratioP2;P2;SDS_P1;SDS_P2;PMS_P1;PMS_P2;Temp;Humidity;BMP_temperature;BMP_pressure;BME280_temperature;BME280_humidity;BME280_pressure;Samples;Min_cycle;Max_cycle;Signal;HPM_P1;HPM_P2
2021/01/01 00:01:14;;;;;;;17.93;10.53;;;;;;;4.01;97.70;95199.13;5091106;28;20204;-67
2021/01/01 00:03:42;;;;;;;27.63;13.10;;;;;;;3.95;97.19;95195.00;5091616;28;20313;-67
2021/01/01 00:06:11;;;;;;;23.63;12.00;;;;;;;3.85;97.98;95200.94;5091222;28;20288;-69
2021/01/01 00:08:38;;;;;;;18.93;11.10;;;;;;;3.81;97.13;95198.13;5091134;28;20203;-69
2021/01/01 00:11:05;;;;;;;25.57;11.17;;;;;;;3.69;97.66;95202.72;5091231;28;20272;-67
2021/01/01 00:13:32;;;;;;;44.43;16.33;;;;;;;3.59;97.29;95196.81;5090804;28;20336;-69
2021/01/01 00:15:59;;;;;;;30.93;14.33;;;;;;;3.56;97.67;95207.63;5090859;28;20227;-67
2021/01/01 00:18:26;;;;;;;28.07;12.70;;;;;;;3.53;98.18;95211.47;5090800;28;20282;-68
2021/01/01 00:20:53;;;;;;;16.23;8.83;;;;;;;3.26;97.10;95209.13;5090796;28;20226;-68
2021/01/01 00:23:23;;;;;;;18.17;9.60;;;;;;;3.20;96.57;95217.03;5090652;28;20279;-68
2021/01/01 00:25:53;;;;;;;15.70;9.40;;;;;;;2.98;96.53;95214.69;5090762;28;20239;-68
2021/01/01 00:28:20;;;;;;;18.57;10.60;;;;;;;2.93;95.49;95220.59;5090626;28;20295;-66
2021/01/01 00:30:47;;;;;;;22.33;12.53;;;;;;;2.83;95.02;95224.91;5090549;28;20200;-68
2021/01/01 00:33:13;;;;;;;26.10;14.33;;;;;;;2.78;96.47;95222.31;5090520;28;20231;-66
2021/01/01 00:35:40;;;;;;;29.70;15.77;;;;;;;2.74;96.73;95226.41;5090534;28;20656;-67
2021/01/01 00:38:07;;;;;;;32.73;18.70;;;;;;;2.72;96.97;95226.66;5090565;28;20278;-67
2021/01/01 00:40:35;;;;;;;33.57;19.63;;;;;;;2.75;96.95;95228.72;5090403;28;20270;-67
2021/01/01 00:43:03;;;;;;;35.57;21.07;;;;;;;2.70;96.70;95235.59;5090366;28;20286;-68
2021/01/01 00:45:30;;;;;;;36.73;21.90;;;;;;;2.63;97.66;95232.50;5090406;28;21010;-68
2021/01/01 00:47:56;;;;;;;41.30;24.97;;;;;;;2.35;97.62;95229.28;5090181;28;20234;-66
2021/01/01 00:50:23;;;;;;;39.80;25.00;;;;;;;2.44;97.93;95230.34;5090427;28;20199;-67
2021/01/01 00:52:50;;;;;;;44.53;24.20;;;;;;;2.40;97.78;95231.09;5090336;28;20229;-66
2021/01/01 00:55:17;;;;;;;41.90;24.50;;;;;;;2.39;97.26;95238.00;5090284;28;20196;-67
2021/01/01 00:57:45;;;;;;;44.20;26.47;;;;;;;2.32;97.63;95234.13;5090264;28;20294;-67
2021/01/01 01:00:13;;;;;;;42.57;26.20;;;;;;;2.28;97.54;95238.22;5090105;28;20282;-67
2021/01/01 01:02:40;;;;;;;46.87;27.80;;;;;;;2.29;97.56;95245.63;5090077;28;20292;-66
2021/01/01 01:05:08;;;;;;;53.87;29.57;;;;;;;2.29;98.95;95244.88;5090229;28;20202;-68
2021/01/01 01:07:36;;;;;;;51.20;30.70;;;;;;;2.32;100.00;95246.94;5089902;28;20226;-67
2021/01/01 01:10:03;;;;;;;83.00;45.60;;;;;;;2.33;100.00;95241.59;5090002;28;20236;-67
2021/01/01 01:12:30;;;;;;;90.63;48.60;;;;;;;2.35;100.00;95239.53;5089848;28;20710;-67
2021/01/01 01:14:58;;;;;;;74.70;42.47;;;;;;;2.38;100.00;95248.53;5090204;28;20245;-67
2021/01/01 01:17:25;;;;;;;91.00;48.43;;;;;;;2.34;100.00;95250.03;5089997;28;20197;-68
2021/01/01 01:19:52;;;;;;;82.57;44.23;;;;;;;2.27;99.79;95252.81;5089992;28;20190;-68
2021/01/01 01:22:19;;;;;;;64.90;36.50;;;;;;;2.26;100.00;95265.88;5094171;28;20287;-66
2021/01/01 01:24:46;;;;;;;55.47;32.37;;;;;;;2.22;100.00;95263.03;5094050;28;20223;-67
2021/01/01 01:27:13;;;;;;;50.53;31.37;;;;;;;2.14;100.00;95268.63;5093959;28;20262;-66
2021/01/01 01:29:39;;;;;;;55.60;31.03;;;;;;;2.15;100.00;95276.03;5094117;28;20583;-68
2021/01/01 01:32:07;;;;;;;56.57;32.23;;;;;;;2.11;100.00;95274.22;5094037;28;20304;-67
2021/01/01 01:34:34;;;;;;;58.80;32.33;;;;;;;2.20;100.00;95275.31;5093932;28;20232;-67
2021/01/01 01:37:04;;;;;;;62.77;33.87;;;;;;;2.16;100.00;95275.03;5093896;28;20203;-67
2021/01/01 01:39:34;;;;;;;64.23;35.87;;;;;;;2.10;100.00;95273.44;5093595;28;20323;-67
2021/01/01 01:42:01;;;;;;;61.13;33.20;;;;;;;2.14;100.00;95284.75;5093783;28;20219;-67
2021/01/01 01:44:27;;;;;;;58.77;32.90;;;;;;;2.07;100.00;95283.44;5093686;28;20201;-67
2021/01/01 01:46:54;;;;;;;59.77;34.30;;;;;;;1.99;100.00;95279.50;5093745;28;20269;-66
2021/01/01 01:49:23;;;;;;;67.07;34.83;;;;;;;1.79;100.00;95281.16;5093622;28;20332;-64
2021/01/01 01:51:53;;;;;;;65.70;37.33;;;;;;;1.70;100.00;95293.59;5093613;28;20289;-67
2021/01/01 01:54:21;;;;;;;70.67;39.90;;;;;;;1.70;100.00;95296.94;5093699;28;20191;-66
2021/01/01 01:56:48;;;;;;;79.03;42.97;;;;;;;1.69;100.00;95294.63;5093819;28;20348;-66
2021/01/01 01:59:18;;;;;;;68.43;36.53;;;;;;;1.70;100.00;95298.72;5093568;28;20316;-67
2021/01/01 02:01:45;;;;;;;72.17;37.27;;;;;;;1.65;100.00;95296.09;5093509;28;20240;-67
2021/01/01 02:04:11;;;;;;;60.17;33.27;;;;;;;1.46;100.00;95303.34;5093596;28;20231;-65
2021/01/01 02:06:41;;;;;;;70.93;38.57;;;;;;;1.55;100.00;95306.25;5093289;28;20248;-67
2021/01/01 02:09:08;;;;;;;65.30;37.30;;;;;;;1.58;100.00;95301.44;5093600;28;20282;-67
2021/01/01 02:11:35;;;;;;;69.00;37.10;;;;;;;1.60;100.00;95301.97;5093125;28;20282;-66
2021/01/01 02:14:02;;;;;;;82.63;40.13;;;;;;;1.60;100.00;95307.06;5093235;28;20231;-66
2021/01/01 02:16:33;;;;;;;76.10;38.43;;;;;;;1.58;100.00;95298.88;5093407;28;20199;-66
2021/01/01 02:19:00;;;;;;;86.77;41.00;;;;;;;1.58;100.00;95295.56;5093109;28;20298;-67
2021/01/01 02:21:27;;;;;;;77.77;39.50;;;;;;;1.56;100.00;95303.47;5093069;28;20195;-67
2021/01/01 02:23:55;;;;;;;77.47;40.20;;;;;;;1.55;100.00;95299.34;5093131;28;20828;-65
2021/01/01 02:26:22;;;;;;;82.67;40.23;;;;;;;1.64;100.00;95297.91;5092883;28;20264;-67
2021/01/01 02:28:49;;;;;;;80.00;42.00;;;;;;;1.60;100.00;95299.41;5093008;28;20200;-67
2021/01/01 02:31:16;;;;;;;91.63;47.30;;;;;;;1.63;100.00;95298.94;5092820;28;20236;-65
2021/01/01 02:33:43;;;;;;;89.37;43.57;;;;;;;1.52;100.00;95307.53;5092817;28;20239;-67
2021/01/01 02:36:11;;;;;;;82.03;42.17;;;;;;;1.47;100.00;95307.47;5092784;28;20233;-67
2021/01/01 02:38:40;;;;;;;80.43;39.60;;;;;;;1.35;100.00;95306.81;5092727;28;20216;-67
2021/01/01 02:41:08;;;;;;;78.23;38.90;;;;;;;1.39;100.00;95312.25;5092391;28;20230;-67
2021/01/01 02:43:34;;;;;;;65.07;33.27;;;;;;;1.39;100.00;95313.03;5092684;28;20809;-67
2021/01/01 02:46:01;;;;;;;71.57;33.93;;;;;;;1.30;100.00;95315.22;5092463;28;20280;-67
2021/01/01 02:48:28;;;;;;;70.30;34.47;;;;;;;1.29;100.00;95318.81;5092667;28;20221;-67
2021/01/01 02:50:55;;;;;;;71.83;37.33;;;;;;;1.38;100.00;95314.03;5092563;28;20550;-67
2021/01/01 02:53:22;;;;;;;74.33;38.40;;;;;;;1.39;100.00;95318.16;5092834;28;20236;-66
2021/01/01 02:55:50;;;;;;;47.63;25.37;;;;;;;1.60;100.00;95313.97;5092593;28;20192;-66
2021/01/01 02:58:17;;;;;;;67.27;33.67;;;;;;;1.58;100.00;95316.81;5092622;28;20677;-64
2021/01/01 03:00:48;;;;;;;70.13;33.67;;;;;;;1.21;100.00;95316.66;5092545;28;20274;-67
2021/01/01 03:03:16;;;;;;;52.10;28.37;;;;;;;1.06;100.00;95308.03;5092818;28;20206;-66
2021/01/01 03:05:43;;;;;;;61.63;30.73;;;;;;;0.94;100.00;95317.59;5092234;28;20686;-65
2021/01/01 03:08:10;;;;;;;50.33;29.67;;;;;;;0.86;100.00;95311.88;5092429;28;20773;-67
2021/01/01 03:10:36;;;;;;;48.27;26.90;;;;;;;0.78;99.72;95314.84;5092423;28;20287;-66
2021/01/01 03:13:04;;;;;;;50.43;28.00;;;;;;;0.68;99.09;95314.72;5092235;28;20198;-66
2021/01/01 03:15:32;;;;;;;52.20;27.93;;;;;;;0.67;98.75;95323.38;5092443;28;20288;-65
2021/01/01 03:17:59;;;;;;;45.33;26.00;;;;;;;0.71;99.26;95316.78;5092090;28;20634;-64
2021/01/01 03:20:26;;;;;;;55.80;27.97;;;;;;;0.71;99.90;95313.47;5091813;28;20650;-66
2021/01/01 03:22:53;;;;;;;49.03;27.30;;;;;;;0.73;99.19;95307.13;5092149;28;20195;-65
2021/01/01 03:25:20;;;;;;;49.77;27.60;;;;;;;0.70;99.78;95314.47;5091910;28;20223;-67
2021/01/01 03:27:47;;;;;;;46.33;26.40;;;;;;;0.62;99.62;95307.97;5091728;28;20696;-67
2021/01/01 03:30:14;;;;;;;44.43;25.40;;;;;;;0.64;99.11;95311.09;5092057;28;20661;-65
2021/01/01 03:32:42;;;;;;;41.37;24.07;;;;;;;0.60;99.33;95317.66;5091565;28;20238;-66
2021/01/01 03:35:09;;;;;;;24.70;13.50;;;;;;;0.68;99.48;95317.28;5091708;28;20235;-66
2021/01/01 03:37:37;;;;;;;16.27;9.53;;;;;;;0.65;100.00;95312.63;5091970;28;20196;-67
2021/01/01 03:40:05;;;;;;;19.40;9.40;;;;;;;0.68;100.00;95319.06;5091551;28;20271;-65
2021/01/01 03:42:32;;;;;;;19.23;11.27;;;;;;;0.70;100.00;95317.03;5091419;28;20230;-65
2021/01/01 03:44:59;;;;;;;23.00;13.40;;;;;;;0.61;100.00;95314.09;5091307;28;20202;-66
2021/01/01 03:47:26;;;;;;;24.27;14.03;;;;;;;0.53;100.00;95308.63;5091354;28;20630;-66
2021/01/01 03:49:57;;;;;;;22.77;13.20;;;;;;;0.53;100.00;95314.50;5091753;28;20277;-66
2021/01/01 03:52:23;;;;;;;25.90;13.40;;;;;;;0.54;100.00;95310.94;5091372;28;20200;-66
2021/01/01 03:54:50;;;;;;;24.77;14.13;;;;;;;0.56;100.00;95314.03;5091502;28;20214;-66
2021/01/01 03:57:17;;;;;;;19.10;11.17;;;;;;;0.52;100.00;95322.41;5091328;28;20282;-67
2021/01/01 03:59:44;;;;;;;20.60;11.53;;;;;;;0.50;100.00;95327.00;5091171;28;20274;-66
2021/01/01 04:02:11;;;;;;;32.90;18.00;;;;;;;0.56;100.00;95334.47;5091048;28;20200;-66
2021/01/01 04:04:38;;;;;;;37.03;20.40;;;;;;;0.59;100.00;95334.03;5091213;28;20307;-66
2021/01/01 04:07:06;;;;;;;38.30;20.67;;;;;;;0.53;100.00;95332.41;5090889;28;20302;-66
2021/01/01 04:09:33;;;;;;;34.70;19.77;;;;;;;0.43;100.00;95333.03;5090940;28;20282;-65
2021/01/01 04:12:03;;;;;;;34.37;20.10;;;;;;;0.42;100.00;95338.38;5090980;28;20702;-67
2021/01/01 04:14:29;;;;;;;35.73;21.80;;;;;;;0.45;100.00;95350.66;5091142;28;20274;-65
2021/01/01 04:16:56;;;;;;;47.30;27.27;;;;;;;0.50;100.00;95353.28;5090928;28;20667;-66
2021/01/01 04:19:23;;;;;;;53.80;30.30;;;;;;;0.59;100.00;95351.91;5090882;28;20275;-65
2021/01/01 04:21:50;;;;;;;50.27;28.83;;;;;;;0.64;100.00;95357.09;5090716;28;20295;-64
2021/01/01 04:24:19;;;;;;;52.53;28.67;;;;;;;0.63;100.00;95360.66;5090722;28;20207;-66
2021/01/01 04:26:46;;;;;;;47.20;28.07;;;;;;;0.58;100.00;95362.38;5091055;28;20226;-66
2021/01/01 04:29:13;;;;;;;49.37;27.00;;;;;;;0.63;100.00;95360.66;5090988;28;20203;-66
2021/01/01 04:31:40;;;;;;;45.67;25.47;;;;;;;0.70;100.00;95366.38;5090573;28;20228;-65
2021/01/01 04:34:08;;;;;;;48.97;26.23;;;;;;;0.75;100.00;95371.56;5090641;28;20580;-65
2021/01/01 04:36:35;;;;;;;45.67;25.17;;;;;;;0.76;100.00;95372.34;5090474;28;20285;-65
2021/01/01 04:39:02;;;;;;;48.70;25.50;;;;;;;0.80;100.00;95369.06;5089856;28;20209;-64
2021/01/01 04:41:31;;;;;;;48.90;27.03;;;;;;;0.80;100.00;95375.97;5090611;28;20277;-66
2021/01/01 04:43:59;;;;;;;60.27;31.30;;;;;;;0.91;100.00;95367.44;5090863;28;20247;-66
2021/01/01 04:46:26;;;;;;;54.73;27.63;;;;;;;0.91;100.00;95367.44;5090201;28;20318;-65
2021/01/01 04:48:54;;;;;;;45.80;24.40;;;;;;;0.82;100.00;95369.63;5090463;28;20195;-66
2021/01/01 04:51:21;;;;;;;49.50;25.23;;;;;;;0.71;100.00;95367.16;5090327;28;20707;-66
2021/01/01 04:53:48;;;;;;;43.57;24.73;;;;;;;0.67;100.00;95366.06;5090270;28;20192;-64
2021/01/01 04:56:15;;;;;;;43.17;24.83;;;;;;;0.67;100.00;95371.97;5089557;28;20280;-65
2021/01/01 04:58:43;;;;;;;50.00;24.67;;;;;;;0.66;100.00;95372.97;5090255;28;20277;-65
2021/01/01 05:01:10;;;;;;;55.60;28.00;;;;;;;0.77;100.00;95377.22;5090170;28;20581;-65
2021/01/01 05:03:37;;;;;;;52.57;26.47;;;;;;;0.69;100.00;95380.19;5090360;28;20271;-65
2021/01/01 05:06:04;;;;;;;53.43;28.10;;;;;;;0.69;100.00;95381.97;5090237;28;20196;-66
2021/01/01 05:08:31;;;;;;;52.53;26.27;;;;;;;0.67;100.00;95384.75;5090038;28;20234;-65
2021/01/01 05:11:06;;;;;;;51.67;25.60;;;;;;;0.66;100.00;95385.75;5090390;28;20237;-66
2021/01/01 05:13:33;;;;;;;51.40;25.87;;;;;;;0.65;100.00;95384.19;5090296;28;20187;-64
2021/01/01 05:16:01;;;;;;;28.10;14.77;;;;;;;0.80;100.00;95392.09;5090213;28;20205;-66
2021/01/01 05:18:29;;;;;;;27.03;15.33;;;;;;;0.98;100.00;95397.97;5090094;28;20295;-66
2021/01/01 05:20:57;;;;;;;25.37;13.37;;;;;;;1.11;100.00;95397.63;5090414;28;20287;-65
2021/01/01 05:23:26;;;;;;;20.47;10.90;;;;;;;1.04;100.00;95394.47;5089994;28;20350;-66
2021/01/01 05:26:11;;;;;;;19.77;9.40;;;;;;;1.09;100.00;95409.91;5090079;28;20212;-65
2021/01/01 05:28:52;;;;;;;14.87;8.63;;;;;;;1.00;100.00;95414.63;5089876;28;20222;-65
2021/01/01 05:31:21;;;;;;;26.87;12.40;;;;;;;0.83;100.00;95422.34;5089986;28;20295;-65
2021/01/01 05:33:53;;;;;;;26.00;13.20;;;;;;;0.72;100.00;95420.63;5090041;28;20310;-65
2021/01/01 05:36:30;;;;;;;25.87;12.93;;;;;;;0.64;100.00;95421.03;5089825;28;20192;-65
2021/01/01 05:38:57;;;;;;;22.13;11.97;;;;;;;0.64;100.00;95433.81;5089491;28;20657;-65
2021/01/01 05:41:32;;;;;;;22.93;12.17;;;;;;;0.61;100.00;95436.81;5089967;28;20294;-65
2021/01/01 05:44:13;;;;;;;26.37;12.87;;;;;;;0.60;100.00;95432.69;5089998;28;20195;-66
2021/01/01 05:46:56;;;;;;;23.80;12.00;;;;;;;0.62;100.00;95429.91;5090008;28;20231;-64
2021/01/01 05:49:24;;;;;;;24.50;11.43;;;;;;;0.76;100.00;95431.94;5089904;28;20287;-64
2021/01/01 05:52:10;;;;;;;18.63;11.07;;;;;;;0.84;100.00;95439.22;5090112;28;20192;-66
2021/01/01 05:54:38;;;;;;;23.50;13.03;;;;;;;0.75;100.00;95442.38;5089753;28;20283;-65
2021/01/01 05:57:06;;;;;;;25.60;14.10;;;;;;;0.76;100.00;95447.28;5089948;28;20231;-66
2021/01/01 05:59:38;;;;;;;24.70;13.13;;;;;;;0.79;100.00;95449.38;5090289;28;20287;-66
2021/01/01 06:02:07;;;;;;;23.30;12.30;;;;;;;0.74;100.00;95449.31;5089683;28;20247;-64
2021/01/01 06:04:35;;;;;;;17.17;9.93;;;;;;;0.73;100.00;95446.97;5089611;28;20198;-65
2021/01/01 06:07:05;;;;;;;17.47;10.90;;;;;;;0.74;100.00;95453.63;5091691;28;20231;-65
2021/01/01 06:09:34;;;;;;;20.30;11.30;;;;;;;0.77;100.00;95451.38;5093501;28;20196;-66
2021/01/01 06:12:06;;;;;;;22.30;11.40;;;;;;;0.75;100.00;95455.94;5093552;28;20244;-65
2021/01/01 06:14:38;;;;;;;20.10;11.93;;;;;;;0.60;100.00;95468.47;5093223;28;20196;-65
2021/01/01 06:17:33;;;;;;;22.40;12.17;;;;;;;0.58;100.00;95464.63;5093419;28;20238;-64
2021/01/01 06:20:00;;;;;;;22.70;11.93;;;;;;;0.45;100.00;95465.69;5091418;28;20191;-66
2021/01/01 06:22:28;;;;;;;20.87;11.37;;;;;;;0.40;100.00;95474.03;5093499;28;20192;-65
2021/01/01 06:24:56;;;;;;;25.10;13.30;;;;;;;0.13;100.00;95472.28;5092963;28;20283;-64
2021/01/01 06:27:26;;;;;;;23.93;14.40;;;;;;;-0.13;99.17;95479.47;5093208;28;20311;-64
2021/01/01 06:29:57;;;;;;;32.33;18.63;;;;;;;-0.16;98.82;95479.16;5093142;28;20245;-65
2021/01/01 06:32:25;;;;;;;33.40;17.50;;;;;;;-0.11;99.08;95489.47;5093021;28;20202;-65
2021/01/01 06:34:53;;;;;;;26.23;14.73;;;;;;;-0.03;98.66;95494.97;5093196;28;20211;-65
2021/01/01 06:37:40;;;;;;;25.13;14.40;;;;;;;0.04;98.68;95494.88;5092739;28;20231;-65
2021/01/01 06:40:28;;;;;;;25.77;13.53;;;;;;;0.07;98.44;95502.06;5092679;28;20273;-65
2021/01/01 06:42:57;;;;;;;26.33;14.93;;;;;;;0.20;98.37;95504.34;5092648;28;20280;-66
2021/01/01 06:45:41;;;;;;;32.37;16.13;;;;;;;0.29;98.01;95509.88;5092858;28;20278;-65
2021/01/01 06:48:10;;;;;;;31.23;16.13;;;;;;;0.30;98.17;95514.00;5092868;28;20324;-65
2021/01/01 06:50:39;;;;;;;35.20;17.87;;;;;;;0.49;98.83;95512.81;5092534;28;20193;-64
2021/01/01 06:53:11;;;;;;;37.97;19.80;;;;;;;0.48;99.02;95510.47;5092635;28;20336;-64
2021/01/01 06:55:39;;;;;;;46.03;21.20;;;;;;;0.61;99.33;95518.63;5092726;28;20283;-65
2021/01/01 06:58:07;;;;;;;35.43;18.93;;;;;;;0.78;99.68;95521.22;5092490;28;20742;-65
2021/01/01 07:00:55;;;;;;;37.13;20.00;;;;;;;0.98;98.98;95515.66;5092320;28;20199;-65
2021/01/01 07:03:32;;;;;;;43.13;22.57;;;;;;;1.01;100.00;95521.06;5087922;28;20196;-65
2021/01/01 07:06:34;;;;;;;38.37;21.10;;;;;;;1.12;100.00;95524.56;5092722;28;20195;-66
2021/01/01 07:09:03;;;;;;;33.50;19.00;;;;;;;1.26;100.00;95524.00;5092622;28;20632;-65
2021/01/01 07:11:38;;;;;;;33.63;18.53;;;;;;;1.40;100.00;95529.56;5092274;28;20202;-66
2021/01/01 07:14:07;;;;;;;36.27;19.63;;;;;;;1.67;100.00;95529.69;5092411;28;20194;-66
2021/01/01 07:16:36;;;;;;;29.70;18.50;;;;;;;1.82;100.00;95532.47;5092227;28;20200;-66
2021/01/01 07:19:04;;;;;;;36.50;18.93;;;;;;;2.01;100.00;95535.50;5091263;28;20202;-66
2021/01/01 07:21:31;;;;;;;38.03;22.20;;;;;;;2.05;100.00;95526.31;5092304;28;20234;-65
2021/01/01 07:24:00;;;;;;;56.27;27.37;;;;;;;2.10;100.00;95534.06;5092261;28;20196;-65
2021/01/01 07:26:29;;;;;;;67.63;32.30;;;;;;;2.35;100.00;95531.78;5091935;28;20589;-66
2021/01/01 07:28:59;;;;;;;88.07;36.00;;;;;;;2.58;99.71;95535.91;5092228;28;20705;-66
2021/01/01 07:31:27;;;;;;;309.67;93.37;;;;;;;2.83;99.57;95533.56;5092395;28;20257;-66
2021/01/01 07:33:55;;;;;;;157.43;56.40;;;;;;;2.95;98.64;95541.09;5091771;28;20220;-66
2021/01/01 07:36:23;;;;;;;68.20;30.67;;;;;;;3.00;97.39;95546.28;5092304;28;20198;-67
2021/01/01 07:38:50;;;;;;;45.20;24.17;;;;;;;3.15;98.27;95541.25;5091791;28;20897;-66
2021/01/01 07:41:19;;;;;;;40.53;23.10;;;;;;;3.30;97.97;95543.94;5051426;28;20235;-66
2021/01/01 07:43:49;;;;;;;37.93;23.23;;;;;;;3.42;97.73;95552.28;5051243;28;20593;-67
2021/01/01 07:46:16;;;;;;;40.13;23.63;;;;;;;3.65;96.71;95550.34;5051262;28;20679;-67
2021/01/01 07:48:43;;;;;;;37.30;23.83;;;;;;;3.61;95.80;95550.06;5051512;28;20806;-67
2021/01/01 07:51:11;;;;;;;35.97;22.90;;;;;;;3.63;96.20;95553.19;5051211;28;20650;-66
2021/01/01 07:53:38;;;;;;;33.43;20.93;;;;;;;3.78;96.22;95560.97;5051351;28;20638;-66
2021/01/01 07:56:07;;;;;;;31.87;18.93;;;;;;;3.80;94.35;95564.06;5051190;28;20656;-66
2021/01/01 07:58:36;;;;;;;35.43;20.83;;;;;;;3.74;94.90;95559.13;5051147;28;20632;-67
2021/01/01 08:01:06;;;;;;;45.07;28.17;;;;;;;3.86;95.55;95557.16;5050996;28;20284;-68
2021/01/01 08:03:34;;;;;;;48.57;28.60;;;;;;;3.95;93.82;95571.09;5051504;28;20193;-67
2021/01/01 08:06:02;;;;;;;43.70;25.27;;;;;;;3.80;94.53;95568.44;5051185;28;20561;-67
2021/01/01 08:08:29;;;;;;;47.17;27.97;;;;;;;3.74;94.43;95569.41;5051027;28;20319;-67
2021/01/01 08:10:57;;;;;;;56.73;33.80;;;;;;;3.64;94.76;95564.22;5050933;28;20705;-65
2021/01/01 08:13:26;;;;;;;55.63;33.67;;;;;;;3.74;95.52;95569.41;5051001;28;20709;-67
2021/01/01 08:15:56;;;;;;;47.07;27.13;;;;;;;3.84;95.05;95575.38;5051004;28;20199;-68
2021/01/01 08:18:24;;;;;;;41.73;23.77;;;;;;;4.05;94.36;95572.94;5051065;28;20232;-67
2021/01/01 08:20:57;;;;;;;36.77;23.13;;;;;;;4.17;94.24;95579.44;5051066;28;20223;-68
2021/01/01 08:23:26;;;;;;;39.77;23.53;;;;;;;4.32;93.62;95582.06;5050765;28;20224;-67
2021/01/01 08:25:54;;;;;;;44.87;23.90;;;;;;;4.46;93.46;95587.53;5050465;28;20668;-66
2021/01/01 08:28:23;;;;;;;38.37;22.60;;;;;;;4.50;94.19;95587.78;5050433;28;20227;-66
2021/01/01 08:30:57;;;;;;;39.37;23.03;;;;;;;4.59;93.99;95586.25;5050521;28;20229;-67
2021/01/01 08:33:27;;;;;;;36.27;21.83;;;;;;;4.89;93.94;95591.50;5050884;28;20280;-68
2021/01/01 08:36:04;;;;;;;37.27;21.60;;;;;;;5.02;93.29;95598.75;5050661;28;20280;-67
2021/01/01 08:38:30;;;;;;;36.53;21.57;;;;;;;5.04;92.77;95588.94;5050271;28;20224;-69
2021/01/01 08:40:59;;;;;;;36.97;21.63;;;;;;;5.18;92.80;95592.56;5085053;28;20266;-68
2021/01/01 08:43:27;;;;;;;33.93;20.73;;;;;;;5.14;92.34;95594.13;5090496;28;20262;-67
2021/01/01 08:45:55;;;;;;;31.87;20.37;;;;;;;5.18;93.24;95584.84;5090391;28;20188;-69
2021/01/01 08:48:28;;;;;;;37.50;22.30;;;;;;;5.44;92.57;95597.72;5090329;28;20268;-68
2021/01/01 08:50:55;;;;;;;32.83;21.40;;;;;;;5.56;89.98;95595.69;5090494;28;20235;-68
2021/01/01 08:53:22;;;;;;;33.93;20.37;;;;;;;5.48;91.23;95598.78;5090494;28;20196;-69
2021/01/01 08:55:57;;;;;;;34.53;21.63;;;;;;;5.68;90.70;95598.75;5090108;28;20230;-68
2021/01/01 08:58:24;;;;;;;37.77;22.27;;;;;;;5.96;89.29;95598.25;5090147;28;20548;-67
2021/01/01 09:00:51;;;;;;;38.23;24.20;;;;;;;6.15;89.42;95606.19;5090239;28;20225;-69
2021/01/01 09:03:22;;;;;;;32.20;19.10;;;;;;;6.27;90.15;95590.44;5090489;28;20230;-66
2021/01/01 09:05:53;;;;;;;29.43;17.97;;;;;;;6.26;88.22;95596.63;5090246;28;20230;-68
2021/01/01 09:08:22;;;;;;;27.17;16.77;;;;;;;6.50;87.44;95595.00;5090023;28;20830;-67
2021/01/01 09:10:50;;;;;;;27.43;18.00;;;;;;;6.64;87.63;95595.19;5090470;28;20231;-68
2021/01/01 09:13:18;;;;;;;30.93;18.10;;;;;;;6.54;87.06;95590.84;5090090;28;20254;-68
2021/01/01 09:15:46;;;;;;;45.17;22.73;;;;;;;6.69;86.60;95595.94;5089932;28;20315;-68
2021/01/01 09:18:14;;;;;;;40.80;18.97;;;;;;;6.89;84.37;95597.63;5089958;28;20232;-68
2021/01/01 09:20:46;;;;;;;35.67;17.80;;;;;;;7.01;83.77;95594.75;5090178;28;20559;-68
2021/01/01 09:23:13;;;;;;;29.23;18.23;;;;;;;7.00;85.67;95600.94;5090136;28;20256;-69
2021/01/01 09:25:40;;;;;;;31.77;16.50;;;;;;;7.32;83.69;95594.25;5089933;28;20344;-68
2021/01/01 09:28:12;;;;;;;27.10;15.57;;;;;;;7.27;83.34;95598.72;5089668;28;20798;-64
2021/01/01 09:30:39;;;;;;;31.77;15.10;;;;;;;7.27;82.66;95599.47;5089871;28;20261;-69
2021/01/01 09:33:08;;;;;;;36.47;16.77;;;;;;;7.51;82.28;95599.56;5089922;28;20219;-69
2021/01/01 09:35:35;;;;;;;23.87;13.87;;;;;;;7.60;82.99;95590.19;5090035;28;20192;-69
2021/01/01 09:38:04;;;;;;;29.37;15.97;;;;;;;7.83;83.17;95593.06;5089846;28;20200;-69
2021/01/01 09:40:33;;;;;;;32.80;16.10;;;;;;;8.03;82.95;95596.25;5089997;28;20267;-68
2021/01/01 09:43:02;;;;;;;20.33;12.43;;;;;;;8.33;84.19;95590.00;5093522;28;20670;-69
2021/01/01 09:45:29;;;;;;;15.10;8.03;;;;;;;8.45;79.88;95587.81;5093975;28;20236;-69
2021/01/01 09:47:56;;;;;;;13.57;8.37;;;;;;;8.42;81.34;95587.59;5093516;28;20226;-66
2021/01/01 09:50:23;;;;;;;11.73;7.00;;;;;;;8.48;79.66;95583.88;5093794;28;20246;-69
2021/01/01 09:52:50;;;;;;;6.63;4.37;;;;;;;8.80;79.86;95578.06;5093768;28;20219;-69
2021/01/01 09:55:19;;;;;;;13.07;8.87;;;;;;;8.88;78.80;95580.00;5093725;28;20233;-70
2021/01/01 09:57:46;;;;;;;8.40;5.00;;;;;;;8.87;79.15;95576.63;5093722;28;20192;-69
2021/01/01 10:00:16;;;;;;;10.67;6.57;;;;;;;9.16;79.63;95584.28;5093483;28;20195;-68
2021/01/01 10:02:43;;;;;;;15.50;9.33;;;;;;;8.96;81.03;95575.00;5093793;28;20692;-70
2021/01/01 10:05:13;;;;;;;5.57;3.20;;;;;;;9.14;73.03;95583.78;5093515;28;20225;-69
2021/01/01 10:07:40;;;;;;;8.80;3.80;;;;;;;9.26;75.55;95580.78;5093426;28;20231;-69
2021/01/01 10:10:08;;;;;;;11.50;7.30;;;;;;;9.28;75.84;95578.66;5093513;28;20282;-70
2021/01/01 10:12:36;;;;;;;5.43;2.33;;;;;;;9.29;71.45;95580.97;5093868;28;20672;-71
2021/01/01 10:15:04;;;;;;;1.67;1.17;;;;;;;9.40;68.75;95577.19;5093519;28;20207;-70
2021/01/01 10:17:31;;;;;;;1.73;0.90;;;;;;;9.59;66.71;95581.56;5093379;28;20219;-69
2021/01/01 10:19:58;;;;;;;2.73;1.80;;;;;;;9.59;67.49;95574.56;5093170;28;20721;-71
2021/01/01 10:22:25;;;;;;;3.03;1.07;;;;;;;9.64;66.78;95581.47;5093164;28;20301;-69
2021/01/01 10:24:52;;;;;;;1.50;1.00;;;;;;;9.50;64.82;95577.03;5093463;28;20231;-70
2021/01/01 10:27:19;;;;;;;2.63;1.30;;;;;;;9.48;67.13;95568.75;5092893;28;20356;-70
2021/01/01 10:29:47;;;;;;;4.90;1.20;;;;;;;9.40;66.83;95569.41;5093116;28;20333;-69
2021/01/01 10:32:14;;;;;;;1.77;0.93;;;;;;;9.64;67.33;95561.50;5093069;28;20192;-67
2021/01/01 10:34:43;;;;;;;2.07;1.10;;;;;;;9.74;68.23;95560.56;5092882;28;20682;-70
2021/01/01 10:37:10;;;;;;;2.03;1.00;;;;;;;9.73;68.36;95559.00;5092753;28;20207;-70
2021/01/01 10:39:37;;;;;;;5.50;1.20;;;;;;;9.86;68.28;95558.28;5092710;28;20231;-69
2021/01/01 10:42:04;;;;;;;2.47;1.20;;;;;;;9.95;66.67;95556.56;5092775;28;20666;-70
2021/01/01 10:44:31;;;;;;;2.73;1.40;;;;;;;10.06;66.36;95557.88;5092856;28;20241;-69
2021/01/01 10:46:59;;;;;;;4.83;1.20;;;;;;;10.01;64.97;95550.22;5092777;28;20255;-70
2021/01/01 10:49:27;;;;;;;2.93;1.40;;;;;;;10.09;65.47;95546.19;5092487;28;20202;-70
2021/01/01 10:51:57;;;;;;;2.80;1.10;;;;;;;10.14;64.39;95543.47;5093008;28;20219;-70
2021/01/01 10:54:24;;;;;;;2.87;1.47;;;;;;;10.27;64.31;95540.91;5091180;28;20223;-67
2021/01/01 10:56:51;;;;;;;1.67;1.20;;;;;;;10.29;63.67;95533.59;5092557;28;20199;-70
2021/01/01 10:59:18;;;;;;;2.63;1.20;;;;;;;10.31;63.34;95533.31;5092392;28;20226;-70
2021/01/01 11:01:45;;;;;;;4.90;1.53;;;;;;;10.47;64.51;95524.16;5092298;28;20195;-70
2021/01/01 11:04:13;;;;;;;2.70;1.77;;;;;;;10.64;63.79;95526.91;5092360;28;20760;-70
2021/01/01 11:06:40;;;;;;;7.50;3.83;;;;;;;10.48;61.97;95523.09;5092223;28;20355;-71
2021/01/01 11:09:07;;;;;;;2.70;1.60;;;;;;;10.58;60.13;95522.88;5092248;28;20241;-70
2021/01/01 11:11:34;;;;;;;2.00;1.37;;;;;;;10.73;63.22;95519.19;5092286;28;20288;-71
2021/01/01 11:14:05;;;;;;;4.17;2.37;;;;;;;10.71;61.37;95523.91;5092136;28;20231;-70
2021/01/01 12:20:21;;;;;;;1.20;0.90;;;;;;;11.32;57.47;95525.91;5091049;28;20614;-69
2021/01/01 12:22:57;;;;;;;1.30;0.90;;;;;;;11.37;55.10;95520.59;5090968;28;20204;-69
2021/01/01 12:25:26;;;;;;;3.40;2.40;;;;;;;11.33;55.23;95526.69;5090844;28;20202;-71
2021/01/01 12:27:58;;;;;;;2.00;1.23;;;;;;;11.40;55.47;95537.44;5090938;28;20330;-71
2021/01/01 12:30:26;;;;;;;16.00;8.70;;;;;;;11.27;55.40;95533.84;5090935;28;20717;-72
2021/01/01 12:32:54;;;;;;;2.60;1.67;;;;;;;11.33;57.80;95526.69;5090618;28;20195;-70
2021/01/01 12:35:21;;;;;;;16.23;9.17;;;;;;;11.29;56.48;95536.91;5090627;28;20227;-70